createdAt,value
2017-07-21T00:00:11.918Z,0
2017-07-21T00:01:00.995Z,0
2017-07-21T00:01:48.467Z,0
2017-07-21T00:02:36.486Z,0
2017-07-21T00:03:25.444Z,0
2017-07-21T00:04:13.593Z,0
2017-07-21T00:05:01.622Z,0
2017-07-21T00:05:51.243Z,0
2017-07-21T00:06:38.775Z,0
2017-07-21T00:07:26.759Z,0
2017-07-21T00:08:15.829Z,0
2017-07-21T00:09:03.756Z,0
2017-07-21T00:09:51.952Z,0
2017-07-21T00:10:44.875Z,0
2017-07-21T00:11:29.025Z,0
2017-07-21T00:12:17.001Z,0
2017-07-21T00:13:05.994Z,0
2017-07-21T00:13:54.118Z,0
2017-07-21T00:14:42.211Z,0
2017-07-21T00:15:31.227Z,0
2017-07-21T00:16:19.263Z,0
2017-07-21T00:17:07.369Z,0
2017-07-21T00:17:56.391Z,0
2017-07-21T00:18:44.361Z,0
2017-07-21T00:19:32.466Z,0
2017-07-21T00:20:20.372Z,0
2017-07-21T00:21:09.501Z,0
2017-07-21T00:21:57.611Z,0
2017-07-21T00:22:45.599Z,0
2017-07-21T00:23:33.678Z,0
2017-07-21T00:24:27.636Z,0
2017-07-21T00:25:15.725Z,0
2017-07-21T00:26:09.734Z,0
2017-07-21T00:26:58.845Z,0
2017-07-21T00:27:47.799Z,0
2017-07-21T00:28:41.955Z,0
2017-07-21T00:29:30.978Z,0
2017-07-21T00:30:25.027Z,0
2017-07-21T00:31:14.158Z,0
2017-07-21T00:32:03.098Z,0
2017-07-21T00:32:51.146Z,0
2017-07-21T00:33:52.123Z,0
2017-07-21T00:34:46.172Z,0
2017-07-21T00:35:46.234Z,0
2017-07-21T00:36:41.187Z,0
2017-07-21T00:37:36.496Z,0
2017-07-21T00:38:36.289Z,0
2017-07-21T00:39:31.420Z,0
2017-07-21T00:40:26.436Z,0
2017-07-21T00:41:27.490Z,0
2017-07-21T00:42:27.536Z,0
2017-07-21T00:43:27.615Z,0
2017-07-21T00:44:22.498Z,0
2017-07-21T00:45:16.709Z,0
2017-07-21T00:46:16.636Z,0
2017-07-21T00:47:11.653Z,0
2017-07-21T00:48:11.760Z,0
2017-07-21T00:49:05.688Z,0
2017-07-21T00:50:05.709Z,0
2017-07-21T00:51:01.256Z,0
2017-07-21T00:51:55.956Z,0
2017-07-21T00:52:55.885Z,0
2017-07-21T00:53:50.854Z,0
2017-07-21T00:54:46.047Z,0
2017-07-21T00:55:47.398Z,0
2017-07-21T00:56:47.028Z,0
2017-07-21T00:57:47.032Z,0
2017-07-21T00:58:42.077Z,0
2017-07-21T00:59:42.070Z,0
2017-07-21T01:00:42.683Z,0
2017-07-21T01:01:36.209Z,0
2017-07-21T01:02:36.267Z,0
2017-07-21T01:03:31.423Z,0
2017-07-21T01:04:31.397Z,0
2017-07-21T01:05:25.318Z,0
2017-07-21T01:06:13.410Z,0
2017-07-21T01:07:02.374Z,0
2017-07-21T01:07:50.482Z,0
2017-07-21T01:08:38.532Z,0
2017-07-21T01:09:26.581Z,0
2017-07-21T01:10:15.936Z,0
2017-07-21T01:11:04.178Z,0
2017-07-21T01:11:51.737Z,0
2017-07-21T01:12:40.870Z,0
2017-07-21T01:13:28.773Z,0
2017-07-21T01:14:16.791Z,0
2017-07-21T01:15:17.779Z,0
2017-07-21T01:16:18.876Z,0
2017-07-21T01:17:12.958Z,0
2017-07-21T01:18:13.881Z,0
2017-07-21T01:19:14.048Z,0
2017-07-21T01:20:09.536Z,0
2017-07-21T01:21:09.158Z,0
2017-07-21T01:22:03.106Z,0
2017-07-21T01:23:03.012Z,0
2017-07-21T01:23:58.169Z,0
2017-07-21T01:24:53.164Z,0
2017-07-21T01:25:53.244Z,0
2017-07-21T01:26:48.318Z,0
2017-07-21T01:27:43.677Z,0
2017-07-21T01:28:49.416Z,0
2017-07-21T01:29:43.643Z,0
2017-07-21T01:30:43.370Z,0
2017-07-21T01:31:38.386Z,0
2017-07-21T01:32:38.508Z,0
2017-07-21T01:33:38.426Z,0
2017-07-21T01:34:44.507Z,0
2017-07-21T01:35:39.564Z,0
2017-07-21T01:36:40.633Z,0
2017-07-21T01:37:40.630Z,0
2017-07-21T01:38:35.674Z,0
2017-07-21T01:39:35.721Z,0
2017-07-21T01:40:29.716Z,0
2017-07-21T01:41:30.784Z,0
2017-07-21T01:42:30.822Z,0
2017-07-21T01:43:25.834Z,0
2017-07-21T01:44:31.918Z,0
2017-07-21T01:45:31.904Z,0
2017-07-21T01:46:33.010Z,0
2017-07-21T01:47:27.027Z,0
2017-07-21T01:48:27.174Z,0
2017-07-21T01:49:21.982Z,0
2017-07-21T01:50:17.544Z,0
2017-07-21T01:51:18.157Z,0
2017-07-21T01:52:19.199Z,0
2017-07-21T01:53:14.254Z,0
2017-07-21T01:54:08.272Z,0
2017-07-21T01:55:08.284Z,0
2017-07-21T01:56:03.910Z,0
2017-07-21T01:57:03.314Z,0
2017-07-21T01:57:57.291Z,0
2017-07-21T01:58:57.441Z,0
2017-07-21T01:59:52.594Z,0
2017-07-21T02:00:47.468Z,0
2017-07-21T02:01:47.551Z,0
2017-07-21T02:02:42.594Z,0
2017-07-21T02:03:42.644Z,0
2017-07-21T02:04:42.586Z,0
2017-07-21T02:05:48.657Z,0
2017-07-21T02:06:43.590Z,0
2017-07-21T02:07:43.626Z,0
2017-07-21T02:08:43.728Z,0
2017-07-21T02:09:43.793Z,0
2017-07-21T02:10:38.834Z,0
2017-07-21T02:11:33.968Z,0
2017-07-21T02:12:33.896Z,0
2017-07-21T02:13:28.959Z,0
2017-07-21T02:14:24.040Z,0
2017-07-21T02:15:24.370Z,0
2017-07-21T02:16:18.980Z,0
2017-07-21T02:17:14.127Z,0
2017-07-21T02:18:20.182Z,0
2017-07-21T02:19:14.176Z,0
2017-07-21T02:20:15.235Z,0
2017-07-21T02:21:15.130Z,0
2017-07-21T02:22:15.368Z,0
2017-07-21T02:23:15.289Z,0
2017-07-21T02:24:16.408Z,0
2017-07-21T02:25:17.727Z,0
2017-07-21T02:26:17.433Z,0
2017-07-21T02:27:23.506Z,0
2017-07-21T02:28:18.513Z,0
2017-07-21T02:29:18.541Z,0
2017-07-21T02:30:13.540Z,0
2017-07-21T02:31:09.109Z,0
2017-07-21T02:32:09.589Z,0
2017-07-21T02:33:09.683Z,0
2017-07-21T02:34:09.596Z,0
2017-07-21T02:35:09.685Z,0
2017-07-21T02:36:11.174Z,0
2017-07-21T02:37:11.723Z,0
2017-07-21T02:38:05.737Z,0
2017-07-21T02:39:05.860Z,0
2017-07-21T02:40:00.819Z,0
2017-07-21T02:41:00.900Z,0
2017-07-21T02:42:00.934Z,0
2017-07-21T02:43:01.002Z,0
2017-07-21T02:43:55.022Z,0
2017-07-21T02:44:55.055Z,0
2017-07-21T02:45:50.029Z,0
2017-07-21T02:46:45.193Z,0
2017-07-21T02:47:45.130Z,0
2017-07-21T02:48:40.115Z,4
2017-07-21T02:49:35.183Z,4
2017-07-21T02:50:35.541Z,4
2017-07-21T02:51:30.227Z,4
2017-07-21T02:52:30.310Z,0
2017-07-21T02:53:30.336Z,4
2017-07-21T02:54:30.325Z,4
2017-07-21T02:55:24.562Z,8
2017-07-21T02:56:24.657Z,4
2017-07-21T02:57:19.477Z,8
2017-07-21T02:58:14.546Z,4
2017-07-21T02:59:15.523Z,8
2017-07-21T03:00:16.580Z,8
2017-07-21T03:01:11.561Z,8
2017-07-21T03:02:05.820Z,12
2017-07-21T03:03:06.739Z,16
2017-07-21T03:04:01.792Z,12
2017-07-21T03:04:55.716Z,16
2017-07-21T03:05:55.851Z,20
2017-07-21T03:06:50.816Z,20
2017-07-21T03:07:45.908Z,20
2017-07-21T03:08:45.862Z,24
2017-07-21T03:09:40.903Z,28
2017-07-21T03:10:40.973Z,36
2017-07-21T03:11:41.037Z,40
2017-07-21T03:12:41.055Z,44
2017-07-21T03:13:35.184Z,48
2017-07-21T03:14:35.112Z,56
2017-07-21T03:15:30.139Z,60
2017-07-21T03:16:25.220Z,64
2017-07-21T03:17:25.271Z,76
2017-07-21T03:18:20.293Z,84
2017-07-21T03:19:15.343Z,92
2017-07-21T03:20:16.328Z,104
2017-07-21T03:21:17.325Z,116
2017-07-21T03:22:17.339Z,132
2017-07-21T03:23:17.443Z,148
2017-07-21T03:24:17.397Z,164
2017-07-21T03:25:17.600Z,180
2017-07-21T03:26:17.577Z,200
2017-07-21T03:27:17.558Z,220
2017-07-21T03:28:17.594Z,244
2017-07-21T03:29:17.597Z,264
2017-07-21T03:30:18.884Z,292
2017-07-21T03:31:13.667Z,316
2017-07-21T03:32:07.777Z,344
2017-07-21T03:33:07.744Z,372
2017-07-21T03:34:02.897Z,404
2017-07-21T03:34:57.916Z,432
2017-07-21T03:35:57.890Z,472
2017-07-21T03:36:52.825Z,512
2017-07-21T03:37:48.054Z,552
2017-07-21T03:38:42.036Z,592
2017-07-21T03:39:41.997Z,636
2017-07-21T03:40:37.060Z,684
2017-07-21T03:41:37.234Z,744
2017-07-21T03:42:37.207Z,792
2017-07-21T03:43:37.222Z,852
2017-07-21T03:44:31.309Z,904
2017-07-21T03:45:31.393Z,960
2017-07-21T03:46:26.342Z,1024
2017-07-21T03:47:21.440Z,1100
2017-07-21T03:48:15.399Z,1160
2017-07-21T03:49:15.265Z,1232
2017-07-21T03:50:10.543Z,1304
2017-07-21T03:51:05.392Z,1376
2017-07-21T03:52:06.750Z,1452
2017-07-21T03:53:06.717Z,1524
2017-07-21T03:54:01.610Z,1588
2017-07-21T03:54:56.675Z,1660
2017-07-21T03:55:57.689Z,1736
2017-07-21T03:56:57.705Z,1796
2017-07-21T03:57:52.698Z,1856
2017-07-21T03:58:47.710Z,1936
2017-07-21T03:59:47.681Z,2036
2017-07-21T04:00:42.708Z,2144
2017-07-21T04:01:37.937Z,2272
2017-07-21T04:02:31.885Z,2452
2017-07-21T04:03:31.941Z,2636
2017-07-21T04:04:26.976Z,2804
2017-07-21T04:05:22.503Z,2960
2017-07-21T04:06:22.075Z,3164
2017-07-21T04:07:17.047Z,3352
2017-07-21T04:08:12.090Z,3504
2017-07-21T04:09:06.032Z,3624
2017-07-21T04:10:07.220Z,3784
2017-07-21T04:11:08.272Z,3960
2017-07-21T04:12:03.642Z,4112
2017-07-21T04:12:57.201Z,4260
2017-07-21T04:13:57.385Z,4428
2017-07-21T04:14:52.262Z,4572
2017-07-21T04:15:52.473Z,4732
2017-07-21T04:16:53.367Z,4792
2017-07-21T04:17:47.400Z,4824
2017-07-21T04:18:47.422Z,4932
2017-07-21T04:19:42.501Z,4984
2017-07-21T04:20:37.469Z,4948
2017-07-21T04:21:31.621Z,4940
2017-07-21T04:22:32.626Z,4992
2017-07-21T04:23:33.700Z,5040
2017-07-21T04:24:28.729Z,5040
2017-07-21T04:25:29.322Z,5076
2017-07-21T04:26:28.776Z,5032
2017-07-21T04:27:28.869Z,4960
2017-07-21T04:28:28.785Z,4972
2017-07-21T04:29:28.895Z,5020
2017-07-21T04:30:29.566Z,5056
2017-07-21T04:31:28.984Z,5088
2017-07-21T04:32:29.040Z,5108
2017-07-21T04:33:29.036Z,5080
2017-07-21T04:34:29.034Z,5004
2017-07-21T04:35:29.710Z,4932
2017-07-21T04:36:29.119Z,4912
2017-07-21T04:37:29.146Z,4972
2017-07-21T04:38:29.294Z,5124
2017-07-21T04:39:29.331Z,5384
2017-07-21T04:40:29.814Z,5588
2017-07-21T04:41:29.267Z,5724
2017-07-21T04:42:29.252Z,5828
2017-07-21T04:43:29.434Z,6492
2017-07-21T04:44:29.442Z,7700
2017-07-21T04:45:30.012Z,8964
2017-07-21T04:46:35.391Z,9740
2017-07-21T04:47:30.555Z,9704
2017-07-21T04:48:24.581Z,10160
2017-07-21T04:49:24.655Z,10992
2017-07-21T04:50:19.616Z,10876
2017-07-21T04:51:14.622Z,10360
2017-07-21T04:52:15.177Z,10184
2017-07-21T04:53:09.649Z,10648
2017-07-21T04:54:05.292Z,10800
2017-07-21T04:54:58.996Z,10624
2017-07-21T04:56:00.190Z,10332
2017-07-21T04:56:53.864Z,10716
2017-07-21T04:57:43.097Z,10744
2017-07-21T04:58:43.072Z,10924
2017-07-21T04:59:38.176Z,11416
2017-07-21T05:00:32.680Z,11880
2017-07-21T05:01:32.406Z,12032
2017-07-21T05:02:26.187Z,11808
2017-07-21T05:03:33.555Z,11132
2017-07-21T05:04:33.641Z,10016
2017-07-21T05:05:28.687Z,9388
2017-07-21T05:06:17.789Z,10352
2017-07-21T05:07:06.834Z,12536
2017-07-21T05:08:00.877Z,14060
2017-07-21T05:09:00.954Z,13240
2017-07-21T05:10:01.076Z,12068
2017-07-21T05:11:01.005Z,11280
2017-07-21T05:12:01.002Z,12304
2017-07-21T05:13:01.128Z,13832
2017-07-21T05:14:01.233Z,13344
2017-07-21T05:15:01.186Z,16140
2017-07-21T05:15:55.153Z,15312
2017-07-21T05:16:56.255Z,13568
2017-07-21T05:17:56.306Z,12572
2017-07-21T05:18:56.404Z,12360
2017-07-21T05:19:50.393Z,12228
2017-07-21T05:20:39.513Z,12216
2017-07-21T05:21:34.537Z,10948
2017-07-21T05:22:34.489Z,12588
2017-07-21T05:23:28.498Z,13432
2017-07-21T05:24:28.623Z,13628
2017-07-21T05:25:17.693Z,13912
2017-07-21T05:26:06.332Z,14056
2017-07-21T05:26:55.565Z,14784
2017-07-21T05:27:49.613Z,15104
2017-07-21T05:28:44.605Z,14880
2017-07-21T05:29:33.636Z,14752
2017-07-21T05:30:29.015Z,16160
2017-07-21T05:31:22.829Z,15776
2017-07-21T05:32:17.513Z,15776
2017-07-21T05:33:06.122Z,16736
2017-07-21T05:33:53.668Z,17376
2017-07-21T05:34:43.109Z,17984
2017-07-21T05:35:31.377Z,19008
2017-07-21T05:36:20.321Z,19936
2017-07-21T05:37:14.893Z,19648
2017-07-21T05:38:09.296Z,24032
2017-07-21T05:39:03.010Z,26240
2017-07-21T05:39:52.079Z,28608
2017-07-21T05:40:46.563Z,30624
2017-07-21T05:41:40.247Z,32736
2017-07-21T05:42:41.689Z,32800
2017-07-21T05:43:41.649Z,35584
2017-07-21T05:44:35.524Z,33824
2017-07-21T05:45:24.904Z,31232
2017-07-21T05:46:24.656Z,28896
2017-07-21T05:47:19.712Z,37088
2017-07-21T05:48:13.931Z,32736
2017-07-21T05:49:07.820Z,33664
2017-07-21T05:50:02.509Z,34976
2017-07-21T05:50:52.068Z,36576
2017-07-21T05:51:47.082Z,36448
2017-07-21T05:52:47.086Z,35008
2017-07-21T05:53:42.265Z,33920
2017-07-21T05:54:42.103Z,31168
2017-07-21T05:55:36.283Z,32736
2017-07-21T05:56:25.387Z,33728
2017-07-21T05:57:14.372Z,35008
2017-07-21T05:58:08.518Z,36384
2017-07-21T05:59:02.604Z,36032
2017-07-21T05:59:57.602Z,34944
2017-07-21T06:00:51.481Z,32704
2017-07-21T06:01:40.384Z,31232
2017-07-21T06:02:34.654Z,30080
2017-07-21T06:03:23.562Z,30816
2017-07-21T06:04:18.881Z,31712
2017-07-21T06:05:18.763Z,34272
2017-07-21T06:06:12.948Z,35872
2017-07-21T06:07:07.061Z,37984
2017-07-21T06:07:55.959Z,40416
2017-07-21T06:08:50.107Z,42176
2017-07-21T06:09:51.084Z,43488
2017-07-21T06:10:51.222Z,43264
2017-07-21T06:11:40.277Z,42080
2017-07-21T06:12:35.371Z,41504
2017-07-21T06:13:35.439Z,40192
2017-07-21T06:14:24.450Z,39072
2017-07-21T06:15:18.548Z,40640
2017-07-21T06:16:13.244Z,40544
2017-07-21T06:17:07.589Z,39488
2017-07-21T06:18:02.470Z,39840
2017-07-21T06:18:51.735Z,40864
2017-07-21T06:19:45.637Z,42752
2017-07-21T06:20:39.836Z,44800
2017-07-21T06:21:39.807Z,45824
2017-07-21T06:22:34.843Z,44224
2017-07-21T06:23:23.887Z,43232
2017-07-21T06:24:13.000Z,40576
2017-07-21T06:25:08.042Z,35936
2017-07-21T06:25:56.117Z,35520
2017-07-21T06:26:51.212Z,41408
2017-07-21T06:27:40.230Z,41952
2017-07-21T06:28:35.266Z,45568
2017-07-21T06:29:35.368Z,44544
2017-07-21T06:30:30.475Z,42272
2017-07-21T06:31:25.435Z,27936
2017-07-21T06:32:19.604Z,33216
2017-07-21T06:33:08.558Z,35680
2017-07-21T06:33:57.753Z,36160
2017-07-21T06:34:51.645Z,39584
2017-07-21T06:35:51.893Z,42240
2017-07-21T06:36:45.779Z,44672
2017-07-21T06:37:39.910Z,46912
2017-07-21T06:38:39.948Z,48800
2017-07-21T06:39:35.008Z,46816
2017-07-21T06:40:29.116Z,51584
2017-07-21T06:41:24.070Z,51584
2017-07-21T06:42:18.192Z,49952
2017-07-21T06:43:12.238Z,46528
2017-07-21T06:44:07.316Z,43328
2017-07-21T06:45:02.446Z,42528
2017-07-21T06:46:02.415Z,43648
2017-07-21T06:46:56.506Z,48000
2017-07-21T06:47:57.469Z,53088
2017-07-21T06:48:51.612Z,57568
2017-07-21T06:49:45.590Z,56896
2017-07-21T06:50:40.722Z,52544
2017-07-21T06:51:28.679Z,49344
2017-07-21T06:52:17.834Z,44192
2017-07-21T06:53:12.785Z,38560
2017-07-21T06:54:06.854Z,33056
2017-07-21T06:54:55.914Z,32992
2017-07-21T06:55:45.080Z,39744
2017-07-21T06:56:34.105Z,46528
2017-07-21T06:57:29.133Z,50112
2017-07-21T06:58:23.382Z,52512
2017-07-21T06:59:23.325Z,53568
2017-07-21T07:00:18.175Z,52480
2017-07-21T07:01:12.455Z,50304
2017-07-21T07:02:06.340Z,50080
2017-07-21T07:02:55.471Z,50080
2017-07-21T07:03:55.606Z,49664
2017-07-21T07:04:44.556Z,49664
2017-07-21T07:05:38.630Z,48672
2017-07-21T07:06:27.847Z,48512
2017-07-21T07:07:22.763Z,50400
2017-07-21T07:08:16.884Z,52544
2017-07-21T07:09:10.811Z,54336
2017-07-21T07:10:04.910Z,57888
2017-07-21T07:10:53.955Z,61376
2017-07-21T07:11:48.096Z,59136
2017-07-21T07:12:43.139Z,54656
2017-07-21T07:13:37.167Z,61056
2017-07-21T07:14:26.217Z,62336
2017-07-21T07:15:21.274Z,59968
2017-07-21T07:16:15.347Z,57248
2017-07-21T07:17:09.493Z,54272
2017-07-21T07:17:58.443Z,52928
2017-07-21T07:18:47.490Z,53216
2017-07-21T07:19:35.661Z,52192
2017-07-21T07:20:29.639Z,54240
2017-07-21T07:21:23.692Z,56640
2017-07-21T07:22:19.045Z,58880
2017-07-21T07:23:18.857Z,60576
2017-07-21T07:24:12.864Z,60800
2017-07-21T07:25:00.945Z,63904
2017-07-21T07:26:02.081Z,65152
2017-07-21T07:26:56.134Z,65376
2017-07-21T07:27:45.427Z,63744
2017-07-21T07:28:40.084Z,62688
2017-07-21T07:29:40.207Z,61152
2017-07-21T07:30:29.313Z,61760
2017-07-21T07:31:23.372Z,63040
2017-07-21T07:32:17.438Z,65440
2017-07-21T07:33:06.894Z,68160
2017-07-21T07:34:00.606Z,69760
2017-07-21T07:34:54.626Z,70816
2017-07-21T07:35:48.619Z,70912
2017-07-21T07:36:36.728Z,68704
2017-07-21T07:37:36.798Z,66400
2017-07-21T07:38:38.249Z,64544
2017-07-21T07:39:26.999Z,62624
2017-07-21T07:40:15.052Z,62656
2017-07-21T07:41:03.086Z,62336
2017-07-21T07:41:57.145Z,63200
2017-07-21T07:42:51.300Z,66048
2017-07-21T07:43:40.384Z,66592
2017-07-21T07:44:34.465Z,68896
2017-07-21T07:45:28.516Z,69888
2017-07-21T07:46:22.568Z,70880
2017-07-21T07:47:17.614Z,70144
2017-07-21T07:48:11.662Z,69056
2017-07-21T07:49:11.770Z,69856
2017-07-21T07:50:05.768Z,71520
2017-07-21T07:50:53.907Z,71904
2017-07-21T07:51:47.997Z,74208
2017-07-21T07:52:43.034Z,75680
2017-07-21T07:53:37.035Z,75392
2017-07-21T07:54:31.276Z,74176
2017-07-21T07:55:20.239Z,72608
2017-07-21T07:56:08.272Z,70848
2017-07-21T07:56:56.364Z,69696
2017-07-21T07:57:45.433Z,70144
2017-07-21T07:58:39.577Z,71520
2017-07-21T07:59:33.639Z,73984
2017-07-21T08:00:28.653Z,78752
2017-07-21T08:01:22.774Z,82848
2017-07-21T08:02:11.774Z,85536
2017-07-21T08:03:05.859Z,85504
2017-07-21T08:03:54.965Z,85056
2017-07-21T08:04:55.098Z,83296
2017-07-21T08:05:50.125Z,81120
2017-07-21T08:06:44.140Z,77824
2017-07-21T08:07:39.113Z,74496
2017-07-21T08:08:34.260Z,71552
2017-07-21T08:09:28.384Z,70336
2017-07-21T08:10:23.462Z,68352
2017-07-21T08:11:17.347Z,66976
2017-07-21T08:12:12.505Z,67264
2017-07-21T08:13:00.577Z,67584
2017-07-21T08:13:54.659Z,67520
2017-07-21T08:14:48.724Z,68352
2017-07-21T08:15:42.789Z,70496
2017-07-21T08:16:42.890Z,73088
2017-07-21T08:17:36.821Z,78912
2017-07-21T08:18:30.920Z,86048
2017-07-21T08:19:20.189Z,90048
2017-07-21T08:20:08.241Z,95008
2017-07-21T08:21:08.240Z,95840
2017-07-21T08:21:56.414Z,94432
2017-07-21T08:22:45.432Z,91648
2017-07-21T08:23:33.512Z,87648
2017-07-21T08:24:27.556Z,83232
2017-07-21T08:25:21.619Z,80192
2017-07-21T08:26:16.990Z,79200
2017-07-21T08:27:05.726Z,79424
2017-07-21T08:28:00.880Z,81088
2017-07-21T08:28:48.917Z,83616
2017-07-21T08:29:38.076Z,85856
2017-07-21T08:30:27.158Z,86688
2017-07-21T08:31:21.448Z,85600
2017-07-21T08:32:16.272Z,83648
2017-07-21T08:33:04.383Z,80960
2017-07-21T08:33:59.374Z,77152
2017-07-21T08:34:47.470Z,76096
2017-07-21T08:35:41.489Z,74816
2017-07-21T08:36:35.827Z,75904
2017-07-21T08:37:29.683Z,79136
2017-07-21T08:38:24.810Z,79488
2017-07-21T08:39:19.744Z,79328
2017-07-21T08:40:13.858Z,79072
2017-07-21T08:41:01.841Z,77504
2017-07-21T08:41:50.315Z,73856
2017-07-21T08:42:38.028Z,74432
2017-07-21T08:43:32.039Z,76192
2017-07-21T08:44:21.170Z,78240
2017-07-21T08:45:10.230Z,79136
2017-07-21T08:46:05.384Z,78976
2017-07-21T08:47:00.536Z,80288
2017-07-21T08:47:54.450Z,82592
2017-07-21T08:48:49.621Z,84000
2017-07-21T08:49:44.647Z,76160
2017-07-21T08:50:45.744Z,89568
2017-07-21T08:51:39.753Z,91456
2017-07-21T08:52:33.923Z,89408
2017-07-21T08:53:28.037Z,88640
2017-07-21T08:54:22.116Z,84992
2017-07-21T08:55:16.120Z,80640
2017-07-21T08:56:11.193Z,78496
2017-07-21T08:56:59.352Z,75232
2017-07-21T08:57:59.426Z,75072
2017-07-21T08:58:54.482Z,75040
2017-07-21T08:59:43.446Z,75488
2017-07-21T09:00:32.667Z,77056
2017-07-21T09:01:27.569Z,78656
2017-07-21T09:02:21.723Z,81408
2017-07-21T09:03:15.877Z,83808
2017-07-21T09:04:09.891Z,86688
2017-07-21T09:05:05.034Z,89472
2017-07-21T09:05:59.960Z,92160
2017-07-21T09:06:55.107Z,92256
2017-07-21T09:07:55.175Z,90144
2017-07-21T09:08:44.325Z,87776
2017-07-21T09:09:38.309Z,84864
2017-07-21T09:10:38.494Z,81728
2017-07-21T09:11:26.530Z,80896
2017-07-21T09:12:15.627Z,77088
2017-07-21T09:13:09.590Z,82240
2017-07-21T09:14:09.791Z,86208
2017-07-21T09:14:58.781Z,89216
2017-07-21T09:15:52.883Z,91936
2017-07-21T09:16:46.919Z,94496
2017-07-21T09:17:36.093Z,95328
2017-07-21T09:18:30.030Z,96160
2017-07-21T09:19:19.663Z,92480
2017-07-21T09:20:14.252Z,94208
2017-07-21T09:21:08.304Z,94080
2017-07-21T09:22:02.393Z,92992
2017-07-21T09:22:51.452Z,91104
2017-07-21T09:23:39.618Z,88960
2017-07-21T09:24:34.861Z,87072
2017-07-21T09:25:23.757Z,86528
2017-07-21T09:26:12.838Z,86912
2017-07-21T09:27:06.925Z,87584
2017-07-21T09:28:00.902Z,86944
2017-07-21T09:28:49.064Z,85600
2017-07-21T09:29:37.087Z,84160
2017-07-21T09:30:26.181Z,83360
2017-07-21T09:31:20.326Z,84672
2017-07-21T09:32:09.276Z,86528
2017-07-21T09:32:58.410Z,87776
2017-07-21T09:33:52.409Z,89024
2017-07-21T09:34:52.671Z,87520
2017-07-21T09:35:47.596Z,85600
2017-07-21T09:36:41.669Z,84736
2017-07-21T09:37:36.768Z,88416
2017-07-21T09:38:25.808Z,90624
2017-07-21T09:39:19.842Z,91680
2017-07-21T09:40:14.030Z,93024
2017-07-21T09:41:02.953Z,93664
2017-07-21T09:41:52.133Z,93088
2017-07-21T09:42:41.171Z,92544
2017-07-21T09:43:41.259Z,92864
2017-07-21T09:44:35.316Z,92128
2017-07-21T09:45:24.508Z,92320
2017-07-21T09:46:24.479Z,90976
2017-07-21T09:47:18.488Z,88704
2017-07-21T09:48:13.626Z,84192
2017-07-21T09:49:08.702Z,80288
2017-07-21T09:49:56.767Z,76896
2017-07-21T09:50:51.842Z,75616
2017-07-21T09:51:51.838Z,73760
2017-07-21T09:52:45.943Z,74368
2017-07-21T09:53:40.986Z,73920
2017-07-21T09:54:29.130Z,74720
2017-07-21T09:55:23.200Z,75040
2017-07-21T09:56:18.290Z,76864
2017-07-21T09:57:07.291Z,80192
2017-07-21T09:58:07.459Z,82496
2017-07-21T09:59:01.353Z,84224
2017-07-21T09:59:50.517Z,80768
2017-07-21T10:00:50.568Z,76576
2017-07-21T10:01:39.661Z,70144
2017-07-21T10:02:28.639Z,64480
2017-07-21T10:03:28.744Z,60032
2017-07-21T10:04:23.773Z,60576
2017-07-21T10:05:17.934Z,65024
2017-07-21T10:06:12.051Z,70336
2017-07-21T10:07:07.029Z,75616
2017-07-21T10:08:00.983Z,75776
2017-07-21T10:09:01.261Z,74752
2017-07-21T10:09:56.235Z,71680
2017-07-21T10:10:45.196Z,73216
2017-07-21T10:11:34.289Z,78496
2017-07-21T10:12:23.756Z,86304
2017-07-21T10:13:12.593Z,93376
2017-07-21T10:14:06.566Z,98976
2017-07-21T10:14:55.590Z,103392
2017-07-21T10:15:49.659Z,100992
2017-07-21T10:16:38.727Z,98432
2017-07-21T10:17:34.180Z,93824
2017-07-21T10:18:33.860Z,91072
2017-07-21T10:19:28.967Z,89312
2017-07-21T10:20:23.001Z,87328
2017-07-21T10:21:17.075Z,86240
2017-07-21T10:22:11.153Z,84608
2017-07-21T10:23:06.539Z,82144
2017-07-21T10:24:01.345Z,77760
2017-07-21T10:24:56.256Z,75456
2017-07-21T10:25:50.464Z,75616
2017-07-21T10:26:44.547Z,79680
2017-07-21T10:27:33.421Z,81472
2017-07-21T10:28:27.598Z,81088
2017-07-21T10:29:27.605Z,82304
2017-07-21T10:30:15.753Z,83360
2017-07-21T10:31:09.798Z,82016
2017-07-21T10:31:58.864Z,81600
2017-07-21T10:32:52.976Z,81504
2017-07-21T10:33:53.100Z,89472
2017-07-21T10:34:48.151Z,75840
2017-07-21T10:35:43.200Z,81120
2017-07-21T10:36:32.310Z,33184
2017-07-21T10:37:32.279Z,83968
2017-07-21T10:38:21.393Z,82784
2017-07-21T10:39:10.385Z,82432
2017-07-21T10:39:59.536Z,38176
2017-07-21T10:40:47.590Z,82656
2017-07-21T10:41:36.539Z,81472
2017-07-21T10:42:30.678Z,82240
2017-07-21T10:43:24.741Z,83456
2017-07-21T10:44:18.830Z,82144
2017-07-21T10:45:12.867Z,81312
2017-07-21T10:46:13.938Z,81728
2017-07-21T10:47:07.924Z,82592
2017-07-21T10:47:57.102Z,80736
2017-07-21T10:48:52.174Z,76576
2017-07-21T10:49:46.188Z,79840
2017-07-21T10:50:46.224Z,80928
2017-07-21T10:51:35.315Z,79264
2017-07-21T10:52:29.303Z,78752
2017-07-21T10:53:23.441Z,79520
2017-07-21T10:54:18.550Z,78016
2017-07-21T10:55:12.581Z,79808
2017-07-21T10:56:07.601Z,78272
2017-07-21T10:57:08.756Z,79136
2017-07-21T10:58:02.772Z,79872
2017-07-21T10:58:51.887Z,79840
2017-07-21T10:59:46.899Z,81056
2017-07-21T11:00:42.004Z,82720
2017-07-21T11:01:30.987Z,82080
2017-07-21T11:02:25.037Z,82464
2017-07-21T11:03:25.157Z,83680
2017-07-21T11:04:19.263Z,82336
2017-07-21T11:05:13.255Z,83776
2017-07-21T11:06:01.332Z,86688
2017-07-21T11:06:55.467Z,90048
2017-07-21T11:07:55.531Z,91328
2017-07-21T11:08:49.511Z,94368
2017-07-21T11:09:43.589Z,90880
2017-07-21T11:10:37.693Z,89472
2017-07-21T11:11:37.725Z,88960
2017-07-21T11:12:25.793Z,90208
2017-07-21T11:13:13.783Z,90816
2017-07-21T11:14:07.980Z,90944
2017-07-21T11:14:57.049Z,90176
2017-07-21T11:15:52.092Z,89312
2017-07-21T11:16:46.106Z,87968
2017-07-21T11:17:35.174Z,84960
2017-07-21T11:18:29.328Z,82880
2017-07-21T11:19:24.412Z,83424
2017-07-21T11:20:13.410Z,84512
2017-07-21T11:21:07.502Z,78880
2017-07-21T11:22:01.532Z,84992
2017-07-21T11:22:49.644Z,85792
2017-07-21T11:23:43.617Z,85600
2017-07-21T11:24:37.746Z,17440
2017-07-21T11:25:37.764Z,17792
2017-07-21T11:26:32.861Z,90272
2017-07-21T11:27:26.943Z,92256
2017-07-21T11:28:27.062Z,94048
2017-07-21T11:29:15.942Z,92992
2017-07-21T11:30:05.140Z,92128
2017-07-21T11:30:59.517Z,91136
2017-07-21T11:31:48.300Z,73376
2017-07-21T11:32:42.350Z,89632
2017-07-21T11:33:30.456Z,90720
2017-07-21T11:34:19.597Z,92064
2017-07-21T11:35:14.647Z,92160
2017-07-21T11:36:08.680Z,90656
2017-07-21T11:37:03.806Z,87520
2017-07-21T11:37:58.828Z,88448
2017-07-21T11:38:53.076Z,89664
2017-07-21T11:39:42.032Z,90624
2017-07-21T11:40:31.183Z,93056
2017-07-21T11:41:20.156Z,94240
2017-07-21T11:42:21.349Z,94400
2017-07-21T11:43:10.455Z,92704
2017-07-21T11:44:04.548Z,92352
2017-07-21T11:44:58.713Z,91840
2017-07-21T11:45:47.681Z,93280
2017-07-21T11:46:36.713Z,95968
2017-07-21T11:47:30.850Z,96576
2017-07-21T11:48:24.999Z,97280
2017-07-21T11:49:12.974Z,97312
2017-07-21T11:50:07.164Z,94208
2017-07-21T11:50:55.202Z,91840
2017-07-21T11:51:49.238Z,89568
2017-07-21T11:52:49.345Z,87072
2017-07-21T11:53:44.418Z,87424
2017-07-21T11:54:33.384Z,89984
2017-07-21T11:55:33.617Z,94848
2017-07-21T11:56:27.614Z,96704
2017-07-21T11:57:16.676Z,95744
2017-07-21T11:58:05.898Z,92832
2017-07-21T11:58:54.886Z,89440
2017-07-21T11:59:43.175Z,86560
2017-07-21T12:00:44.343Z,84448
2017-07-21T12:01:32.209Z,85248
2017-07-21T12:02:32.189Z,88896
2017-07-21T12:03:32.322Z,91264
2017-07-21T12:04:26.439Z,89600
2017-07-21T12:05:26.539Z,86624
2017-07-21T12:06:27.666Z,82912
2017-07-21T12:07:22.647Z,80000
2017-07-21T12:08:16.774Z,81856
2017-07-21T12:09:10.888Z,84224
2017-07-21T12:10:10.874Z,89440
2017-07-21T12:11:04.982Z,91712
2017-07-21T12:11:54.110Z,11672
2017-07-21T12:12:48.186Z,88064